Main page
METAR-TAF:

METAR-TAF

Airports :

Converse County Airport

Douglas, Wyoming, United States

latitude: 42-47-39N, longitude: 105-22-55W, elevation: 4927 ft

Current weather observation

The report was made 15 minutes ago, at 11:53 UTC
Wind 6 mph from variable directions
Temperature 52°F
Humidity 58%
Pressure 29.72 in. Hg
Visibility: 10 miles
Overcast at a height of 11000 ft

METAR: KDGW 251153Z AUTO VRB05KT 10SM OVC110 11/03 A2972 RMK AO2 SLP022 T01110033 10117 20044 58000

Time: 06:08 (12:08 UTC)


TAF: missing

Weather observations and forecasts of more than 4000 airports (METAR and TAF reports).

The available stations are represented by yellow and red dots on the map.

Hover mouse over dot to see the name of the station.

Then click to see weather observations and forecasts.

To change the map : click on the green buttons with a black cross to zoom in, on the green button with a dash to zoom out, or on the green arrows for adjacent maps.


METAR-TAF: